Time;durP1;ratioP1;P1;durP2;ratioP2;P2;SDS_P1;SDS_P2;PMS_P1;PMS_P2;Temp;Humidity;BMP_temperature;BMP_pressure;BME280_temperature;BME280_humidity;BME280_pressure;Samples;Min_cycle;Max_cycle;Signal;HPM_P1;HPM_P2
2022/07/29 00:01:20;;;;;;;38.85;5.70;;;;;;;22.35;56.80;97772.50;5006986;28;20038;-52
2022/07/29 00:03:46;;;;;;;33.85;4.88;;;;;;;22.35;57.41;97767.19;5006256;28;20018;-53
2022/07/29 00:06:11;;;;;;;38.33;5.32;;;;;;;22.05;57.86;97779.63;5004732;28;20034;-52
2022/07/29 00:08:37;;;;;;;34.45;5.35;;;;;;;22.11;57.93;97765.78;5007054;28;20026;-52
2022/07/29 00:11:02;;;;;;;38.05;5.22;;;;;;;22.11;57.72;97760.47;5006948;28;20045;-52
2022/07/29 00:13:28;;;;;;;44.03;6.03;;;;;;;22.35;57.14;97756.56;5005589;28;20825;-52
2022/07/29 00:15:53;;;;;;;36.03;5.35;;;;;;;22.29;57.38;97762.44;5005446;28;20041;-54
2022/07/29 00:18:18;;;;;;;45.72;5.97;;;;;;;22.24;57.75;97754.00;5005946;28;20038;-55
2022/07/29 00:20:44;;;;;;;33.47;4.80;;;;;;;21.98;58.29;97753.78;5006863;28;20128;-52
2022/07/29 00:23:09;;;;;;;48.05;6.40;;;;;;;22.26;57.48;97746.81;5006689;28;20531;-53
2022/07/29 00:25:35;;;;;;;29.42;4.75;;;;;;;22.42;57.88;97754.97;5007372;28;20149;-52
2022/07/29 00:28:00;;;;;;;28.98;4.75;;;;;;;22.37;57.27;97757.25;5006304;28;20475;-52
2022/07/29 00:30:25;;;;;;;44.45;6.45;;;;;;;22.20;57.32;97757.94;5004905;28;20033;-53
2022/07/29 00:32:51;;;;;;;26.13;4.50;;;;;;;22.33;57.53;97753.19;5003736;28;20075;-53
2022/07/29 00:38:00;;;;;;;31.83;5.32;;;;;;;22.45;56.88;97749.38;5007213;28;20060;-52
2022/07/29 00:40:25;;;;;;;32.75;5.13;;;;;;;22.24;58.34;97746.03;5008036;28;20070;-52
2022/07/29 00:42:51;;;;;;;27.73;4.75;;;;;;;22.49;58.38;97753.44;5008954;28;20025;-55
2022/07/29 00:45:18;;;;;;;31.83;4.78;;;;;;;22.57;57.34;97754.53;5004682;28;20028;-52
2022/07/29 00:47:44;;;;;;;27.13;4.95;;;;;;;22.17;56.70;97755.59;5005580;28;20656;-56
2022/07/29 00:50:11;;;;;;;43.30;5.93;;;;;;;22.38;57.14;97753.59;5006866;28;20065;-52
2022/07/29 00:52:39;;;;;;;27.13;4.80;;;;;;;22.24;57.13;97756.66;5007236;28;20029;-52
2022/07/29 00:55:06;;;;;;;31.98;5.32;;;;;;;22.43;58.28;97753.19;5006543;28;20456;-53
2022/07/29 00:57:33;;;;;;;38.58;5.57;;;;;;;22.23;57.30;97744.38;5007354;28;20602;-53
2022/07/29 00:59:58;;;;;;;39.08;6.07;;;;;;;22.16;58.11;97730.81;5005315;28;20614;-52
2022/07/29 01:02:24;;;;;;;28.10;4.53;;;;;;;22.08;57.92;97728.88;5006915;28;20132;-53
2022/07/29 01:04:50;;;;;;;33.33;5.05;;;;;;;22.13;57.35;97723.16;5007051;28;20099;-53
2022/07/29 01:07:17;;;;;;;37.55;5.60;;;;;;;22.05;56.68;97728.34;5004643;28;20029;-52
2022/07/29 01:09:44;;;;;;;38.22;5.50;;;;;;;22.01;57.15;97730.44;5006341;28;20136;-52
2022/07/29 01:12:10;;;;;;;42.00;5.85;;;;;;;21.93;56.47;97727.66;5004818;28;20940;-52
2022/07/29 01:14:37;;;;;;;32.20;5.10;;;;;;;22.04;56.25;97727.50;5006171;28;20664;-53
2022/07/29 01:17:07;;;;;;;29.13;4.90;;;;;;;21.81;56.73;97726.13;5005955;28;20091;-54
2022/07/29 01:19:48;;;;;;;42.00;6.07;;;;;;;22.04;56.71;97727.50;5003429;28;20035;-52
2022/07/29 01:22:33;;;;;;;36.38;5.68;;;;;;;21.95;56.67;97717.72;5005645;28;20048;-53
2022/07/29 01:25:17;;;;;;;33.53;5.30;;;;;;;21.91;56.84;97719.00;4967985;28;20077;-52
2022/07/29 01:28:07;;;;;;;32.85;5.07;;;;;;;21.74;57.15;97721.38;5007004;28;20064;-52
2022/07/29 01:30:36;;;;;;;28.88;4.88;;;;;;;21.78;57.34;97716.63;5006527;28;20605;-52
2022/07/29 01:33:07;;;;;;;37.47;5.60;;;;;;;21.99;57.53;97716.47;5006747;28;20025;-53
2022/07/29 01:35:44;;;;;;;34.33;5.32;;;;;;;21.73;57.39;97714.38;5012337;28;20053;-53
2022/07/29 01:38:17;;;;;;;31.15;4.95;;;;;;;21.95;57.47;97717.72;5007277;28;20033;-53
2022/07/29 01:40:58;;;;;;;32.47;5.20;;;;;;;22.01;57.91;97722.47;5006158;28;20036;-53
2022/07/29 01:44:06;;;;;;;37.63;6.03;;;;;;;21.87;57.51;97722.88;5004351;28;20044;-54
2022/07/29 01:46:34;;;;;;;37.28;5.43;;;;;;;22.01;57.83;97726.94;4934174;28;20050;-54
2022/07/29 01:49:13;;;;;;;31.60;4.75;;;;;;;22.13;58.40;97731.97;4988420;28;20042;-53
2022/07/29 01:51:52;;;;;;;39.47;5.03;;;;;;;22.22;58.22;97729.41;5004406;28;20541;-56
2022/07/29 01:54:36;;;;;;;32.15;4.95;;;;;;;21.98;58.06;97730.69;5005363;28;20018;-53
2022/07/29 01:57:04;;;;;;;33.60;5.03;;;;;;;21.96;58.70;97735.31;5006005;28;20042;-53
2022/07/29 01:59:31;;;;;;;41.47;6.18;;;;;;;21.88;57.77;97729.88;5004895;28;20157;-53
2022/07/29 02:01:58;;;;;;;37.60;5.60;;;;;;;21.42;59.20;97726.91;5005070;28;20924;-53
2022/07/29 02:04:25;;;;;;;34.58;5.10;;;;;;;21.72;57.94;97728.63;5005237;28;20026;-53
2022/07/29 02:06:54;;;;;;;34.55;5.47;;;;;;;21.84;57.58;97716.06;5002931;28;20041;-53
2022/07/29 02:09:22;;;;;;;25.60;4.43;;;;;;;21.92;57.08;97715.34;5003152;28;20586;-53
2022/07/29 02:11:50;;;;;;;26.58;4.60;;;;;;;22.01;57.79;97716.31;5004881;28;20050;-53
2022/07/29 02:14:18;;;;;;;32.65;4.85;;;;;;;22.18;58.73;97720.06;5002199;28;20129;-53
2022/07/29 02:16:45;;;;;;;37.72;5.63;;;;;;;22.19;57.12;97724.41;5005717;28;20076;-52
2022/07/29 02:19:12;;;;;;;31.60;4.70;;;;;;;21.73;57.72;97725.00;5005804;28;20033;-53
2022/07/29 02:21:39;;;;;;;37.85;5.47;;;;;;;21.72;58.17;97711.88;5004896;28;20042;-53
2022/07/29 02:24:05;;;;;;;30.63;4.97;;;;;;;21.77;58.63;97725.56;5005604;28;20033;-53
2022/07/29 02:26:32;;;;;;;29.08;4.80;;;;;;;21.86;58.50;97729.19;5006879;28;20028;-55
2022/07/29 02:28:59;;;;;;;29.75;4.75;;;;;;;21.81;58.68;97731.44;5007834;28;20021;-53
2022/07/29 02:31:30;;;;;;;32.60;5.25;;;;;;;21.46;59.57;97738.13;5006810;28;20052;-54
2022/07/29 02:33:56;;;;;;;37.08;5.20;;;;;;;21.39;61.15;97735.13;5008418;28;20022;-53
2022/07/29 02:36:23;;;;;;;31.95;5.20;;;;;;;21.59;60.21;97733.38;5008907;28;20084;-54
2022/07/29 02:38:50;;;;;;;30.80;5.00;;;;;;;21.60;59.06;97735.06;5008406;28;20911;-53
2022/07/29 02:41:29;;;;;;;36.00;5.90;;;;;;;21.45;59.15;97733.78;5008347;28;20545;-53
2022/07/29 02:43:58;;;;;;;31.10;4.90;;;;;;;21.66;58.48;97726.53;5008444;28;20060;-53
2022/07/29 02:46:31;;;;;;;27.02;4.70;;;;;;;21.58;58.76;97729.06;5008601;28;20759;-53
2022/07/29 02:49:03;;;;;;;36.65;5.88;;;;;;;21.45;58.92;97721.38;5008340;28;20650;-53
2022/07/29 02:51:40;;;;;;;44.90;5.95;;;;;;;21.49;58.97;97725.41;5006414;28;20045;-53
2022/07/29 02:54:08;;;;;;;39.45;5.78;;;;;;;21.50;58.84;97723.59;5008181;28;20024;-53
2022/07/29 02:56:35;;;;;;;36.10;5.20;;;;;;;21.50;58.43;97729.72;5006272;28;20038;-53
2022/07/29 02:59:05;;;;;;;45.65;6.53;;;;;;;21.36;59.89;97717.69;5007624;28;20057;-55
2022/07/29 03:01:33;;;;;;;37.22;5.75;;;;;;;21.37;59.88;97724.66;5006516;28;20073;-53
2022/07/29 03:04:03;;;;;;;33.78;5.40;;;;;;;21.29;60.51;97721.88;5008209;28;20029;-53
2022/07/29 03:06:28;;;;;;;28.90;4.55;;;;;;;21.31;60.93;97719.06;5007255;28;20060;-53
2022/07/29 03:08:55;;;;;;;39.95;6.05;;;;;;;21.29;61.19;97724.50;5006540;28;20100;-53
2022/07/29 03:11:22;;;;;;;36.92;5.30;;;;;;;21.27;61.43;97721.16;5007222;28;20030;-54
2022/07/29 03:13:48;;;;;;;34.00;4.85;;;;;;;21.26;62.01;97727.44;5008688;28;20021;-53
2022/07/29 03:16:15;;;;;;;27.23;4.25;;;;;;;21.48;62.93;97730.84;4990110;28;20626;-53
2022/07/29 03:18:41;;;;;;;35.60;5.60;;;;;;;21.23;62.55;97730.38;5004163;28;20022;-53
2022/07/29 03:21:07;;;;;;;29.48;4.72;;;;;;;21.11;63.49;97721.69;5009343;28;20049;-53
2022/07/29 03:23:33;;;;;;;31.88;5.28;;;;;;;21.20;63.23;97724.50;5016966;28;20526;-52
2022/07/29 03:25:58;;;;;;;32.33;4.85;;;;;;;21.32;62.50;97729.56;5008033;28;20042;-53
2022/07/29 03:28:27;;;;;;;33.25;5.50;;;;;;;21.20;61.95;97722.69;5007051;28;20013;-53
2022/07/29 03:30:52;;;;;;;31.05;5.22;;;;;;;21.20;62.28;97725.34;5008147;28;20037;-53
2022/07/29 03:33:18;;;;;;;37.42;5.85;;;;;;;21.20;62.80;97727.16;5006264;28;20025;-55
2022/07/29 03:35:43;;;;;;;35.05;5.30;;;;;;;21.14;61.95;97720.59;5006826;28;20051;-53
2022/07/29 03:38:08;;;;;;;35.65;5.47;;;;;;;21.02;63.10;97721.66;5008106;28;20527;-53
2022/07/29 03:40:40;;;;;;;35.17;5.55;;;;;;;21.04;63.26;97722.38;5006233;28;20033;-53
2022/07/29 03:43:08;;;;;;;32.83;4.97;;;;;;;21.04;62.69;97728.50;5007446;28;20399;-54
2022/07/29 03:45:35;;;;;;;39.05;5.78;;;;;;;20.96;63.59;97721.22;5005184;28;20085;-52
2022/07/29 03:48:05;;;;;;;33.15;5.50;;;;;;;20.93;63.90;97726.78;4976095;28;20041;-53
2022/07/29 03:50:32;;;;;;;32.55;5.32;;;;;;;20.77;64.24;97721.19;5002581;28;21053;-53
2022/07/29 03:52:59;;;;;;;37.28;5.55;;;;;;;21.11;63.63;97718.19;5008968;28;20052;-51
2022/07/29 03:55:26;;;;;;;22.95;4.15;;;;;;;20.77;64.28;97715.88;5007369;28;20042;-52
2022/07/29 03:57:52;;;;;;;37.28;5.85;;;;;;;20.91;64.34;97715.47;5006359;28;20925;-52
2022/07/29 04:00:19;;;;;;;31.85;5.10;;;;;;;21.10;64.89;97716.50;5005704;28;20097;-52
2022/07/29 04:02:48;;;;;;;39.13;5.88;;;;;;;21.14;64.16;97718.78;5005928;28;20041;-52
2022/07/29 04:05:14;;;;;;;31.92;4.95;;;;;;;21.18;62.69;97721.97;5004846;28;20109;-52
2022/07/29 04:07:49;;;;;;;29.30;4.85;;;;;;;21.38;62.22;97725.50;5005824;28;20025;-52
2022/07/29 04:10:16;;;;;;;41.38;6.05;;;;;;;21.27;62.16;97718.50;5006077;28;20038;-52
2022/07/29 04:12:42;;;;;;;33.20;4.97;;;;;;;21.18;62.44;97724.63;5006952;28;20028;-52
2022/07/29 04:15:08;;;;;;;41.00;6.10;;;;;;;21.19;61.67;97731.59;5004830;28;20067;-52
2022/07/29 04:17:33;;;;;;;35.15;5.38;;;;;;;20.96;63.36;97731.00;5004304;28;20022;-52
2022/07/29 04:19:59;;;;;;;48.03;6.65;;;;;;;21.13;63.68;97734.81;5005992;28;20630;-54
2022/07/29 04:22:24;;;;;;;31.45;5.03;;;;;;;21.32;62.51;97734.00;5006432;28;20041;-53
2022/07/29 04:24:50;;;;;;;25.13;4.68;;;;;;;21.17;63.47;97730.91;5006303;28;20475;-52
2022/07/29 04:27:15;;;;;;;35.47;5.55;;;;;;;20.83;66.09;97739.19;5005373;28;20577;-52
2022/07/29 04:29:41;;;;;;;34.38;5.38;;;;;;;20.83;66.33;97731.25;5005349;28;20029;-51
2022/07/29 04:32:06;;;;;;;33.08;5.32;;;;;;;20.87;65.98;97732.63;5004665;28;20045;-55
2022/07/29 04:34:31;;;;;;;34.05;5.35;;;;;;;20.82;66.46;97736.66;5006678;28;20037;-52
2022/07/29 04:36:57;;;;;;;30.65;4.68;;;;;;;20.69;67.27;97740.38;5005553;28;20156;-52
2022/07/29 04:39:22;;;;;;;31.63;5.03;;;;;;;20.97;66.36;97749.44;5007697;28;20113;-52
2022/07/29 04:41:49;;;;;;;28.27;4.97;;;;;;;20.97;66.72;97749.44;5003633;28;20754;-52
2022/07/29 04:44:14;;;;;;;34.58;5.70;;;;;;;20.88;67.97;97755.53;5005299;28;20022;-52
2022/07/29 04:46:39;;;;;;;32.35;5.05;;;;;;;21.17;66.58;97754.78;5007109;28;20064;-54
2022/07/29 04:49:05;;;;;;;26.88;4.53;;;;;;;21.12;66.77;97757.00;5004954;28;20177;-52
2022/07/29 04:51:30;;;;;;;31.33;5.13;;;;;;;20.97;67.97;97757.38;5004726;28;20416;-52
2022/07/29 04:53:56;;;;;;;31.80;5.25;;;;;;;21.10;67.25;97758.94;5005069;28;20010;-51
2022/07/29 04:56:21;;;;;;;43.75;6.03;;;;;;;20.68;70.13;97756.44;5006785;28;20045;-53
2022/07/29 04:58:47;;;;;;;30.05;4.93;;;;;;;21.14;68.03;97766.50;5007595;28;20022;-52
2022/07/29 05:01:14;;;;;;;40.55;5.90;;;;;;;21.14;67.66;97765.66;5004856;28;20037;-52
2022/07/29 05:03:39;;;;;;;34.00;5.32;;;;;;;21.38;65.79;97763.47;5006449;28;20021;-52
2022/07/29 05:06:05;;;;;;;36.63;5.07;;;;;;;21.16;67.25;97769.03;5006886;28;20538;-52
2022/07/29 05:08:30;;;;;;;43.47;6.07;;;;;;;21.20;67.28;97765.13;5003615;28;20037;-53
2022/07/29 05:10:55;;;;;;;25.00;4.53;;;;;;;20.98;68.71;97767.00;5007557;28;20069;-51
2022/07/29 05:13:21;;;;;;;27.48;4.68;;;;;;;21.25;67.39;97772.69;5006018;28;20029;-53
2022/07/29 05:15:46;;;;;;;37.63;5.72;;;;;;;21.25;66.83;97765.56;5003608;28;20041;-52
2022/07/29 05:18:12;;;;;;;26.05;4.50;;;;;;;20.89;68.14;97767.81;5004899;28;20033;-52
2022/07/29 05:20:37;;;;;;;27.73;4.43;;;;;;;20.99;66.06;97768.69;5006781;28;20056;-51
2022/07/29 05:23:03;;;;;;;27.33;4.60;;;;;;;20.87;68.82;97761.78;5008578;28;20026;-52
2022/07/29 05:25:29;;;;;;;31.20;5.07;;;;;;;21.03;67.09;97763.13;5007463;28;20038;-52
2022/07/29 05:27:55;;;;;;;27.20;4.68;;;;;;;20.89;67.74;97761.66;5005784;28;20121;-52
2022/07/29 05:30:21;;;;;;;41.55;5.57;;;;;;;21.05;68.22;97761.19;5005469;28;20033;-52
2022/07/29 05:32:47;;;;;;;31.67;5.10;;;;;;;21.37;66.42;97761.78;5006144;28;20070;-52
2022/07/29 05:35:13;;;;;;;35.70;5.45;;;;;;;21.34;66.95;97772.69;5007864;28;20021;-52
2022/07/29 05:37:40;;;;;;;27.38;4.53;;;;;;;21.55;65.22;97769.13;5005319;28;20670;-53
2022/07/29 05:40:06;;;;;;;45.45;6.50;;;;;;;21.68;63.93;97776.81;5004013;28;20155;-52
2022/07/29 05:42:32;;;;;;;40.15;6.00;;;;;;;21.85;64.13;97775.28;5000729;28;20455;-51
2022/07/29 05:44:57;;;;;;;54.08;6.97;;;;;;;21.73;63.84;97772.78;5002563;28;20831;-52
2022/07/29 05:47:23;;;;;;;36.80;5.60;;;;;;;21.88;63.28;97775.03;5003427;28;20409;-52
2022/07/29 05:49:50;;;;;;;35.97;5.68;;;;;;;23.07;59.77;97767.53;5004637;28;20618;-52
2022/07/29 05:52:15;;;;;;;37.08;6.10;;;;;;;25.78;50.00;97772.94;5004262;28;20757;-52
2022/07/29 05:54:41;;;;;;;28.60;4.72;;;;;;;26.19;48.53;97772.16;5008687;28;20032;-52
2022/07/29 05:57:06;;;;;;;45.25;6.65;;;;;;;28.44;43.44;97771.69;5003715;28;20037;-52
2022/07/29 05:59:38;;;;;;;25.13;4.60;;;;;;;29.73;40.29;97775.91;5006867;28;20032;-52
2022/07/29 06:02:04;;;;;;;26.88;4.82;;;;;;;28.24;41.22;97776.72;5006487;28;20073;-54
2022/07/29 06:04:31;;;;;;;32.08;5.63;;;;;;;28.60;40.70;97776.09;5008673;28;20109;-52
2022/07/29 06:06:56;;;;;;;21.55;4.28;;;;;;;30.06;39.02;97776.25;5009769;28;20037;-52
2022/07/29 06:09:22;;;;;;;31.58;5.47;;;;;;;32.03;36.18;97767.03;5010559;28;20121;-52
2022/07/29 06:11:48;;;;;;;21.27;4.50;;;;;;;31.19;36.47;97773.59;5009705;28;20041;-52
2022/07/29 06:14:13;;;;;;;24.05;4.50;;;;;;;31.27;35.86;97761.81;5008461;28;20187;-54
2022/07/29 06:16:38;;;;;;;16.67;3.75;;;;;;;31.68;35.21;97772.53;5008584;28;20038;-52
2022/07/29 06:19:04;;;;;;;15.63;3.58;;;;;;;34.01;32.46;97767.78;5010355;28;20168;-54
2022/07/29 06:21:29;;;;;;;22.83;4.43;;;;;;;33.19;32.55;97771.06;5008404;28;20066;-55
2022/07/29 06:23:55;;;;;;;24.15;4.07;;;;;;;34.61;30.57;97775.44;5006902;28;20054;-53
2022/07/29 06:26:20;;;;;;;21.15;4.10;;;;;;;35.42;30.26;97772.69;5009077;28;20590;-53
2022/07/29 06:28:45;;;;;;;16.20;3.97;;;;;;;36.48;28.47;97764.91;5009859;28;20029;-53
2022/07/29 06:31:11;;;;;;;13.75;3.42;;;;;;;35.76;29.82;97771.22;5006663;28;20116;-53
2022/07/29 06:33:36;;;;;;;20.90;4.50;;;;;;;35.27;30.02;97764.97;5007879;28;20025;-53
2022/07/29 06:36:05;;;;;;;14.90;3.72;;;;;;;36.73;28.31;97772.03;5008538;28;20045;-53
2022/07/29 06:38:30;;;;;;;16.85;4.20;;;;;;;37.19;27.25;97770.34;5009576;28;20026;-53
2022/07/29 06:41:09;;;;;;;15.88;3.83;;;;;;;34.44;30.22;97771.63;5008424;28;20084;-52
2022/07/29 06:43:37;;;;;;;11.82;3.20;;;;;;;36.62;28.11;97765.50;5008288;28;20105;-53
2022/07/29 06:46:05;;;;;;;17.55;4.07;;;;;;;38.19;26.71;97773.59;5008379;28;20034;-53
2022/07/29 06:48:32;;;;;;;12.70;3.47;;;;;;;34.57;29.78;97766.06;5007670;28;20045;-53
2022/07/29 06:50:57;;;;;;;15.32;3.40;;;;;;;33.73;30.06;97765.44;5007030;28;20079;-53
2022/07/29 06:53:23;;;;;;;11.77;3.40;;;;;;;35.99;28.76;97766.91;5007996;28;20022;-53
2022/07/29 06:55:49;;;;;;;17.60;3.90;;;;;;;34.85;30.30;97762.06;5007783;28;20037;-53
2022/07/29 06:58:17;;;;;;;13.02;3.33;;;;;;;35.63;29.13;97757.81;5006338;28;21071;-54
2022/07/29 07:00:44;;;;;;;19.05;3.90;;;;;;;36.30;28.65;97757.69;5006391;28;20033;-53
2022/07/29 07:03:09;;;;;;;20.90;4.25;;;;;;;34.84;30.92;97765.84;5008803;28;20386;-52
2022/07/29 07:05:35;;;;;;;26.60;5.10;;;;;;;37.58;28.25;97767.84;5008556;28;20538;-53
2022/07/29 07:08:00;;;;;;;29.02;5.35;;;;;;;38.29;27.13;97767.47;5007136;28;20025;-53
2022/07/29 07:10:25;;;;;;;22.75;4.30;;;;;;;38.08;27.54;97766.31;5004380;28;20126;-53
2022/07/29 07:12:51;;;;;;;23.60;4.57;;;;;;;38.48;27.34;97777.06;5006531;28;20044;-53
2022/07/29 07:15:17;;;;;;;19.38;4.18;;;;;;;34.07;31.56;97772.28;5009247;28;20121;-53
2022/07/29 07:17:42;;;;;;;22.75;5.65;;;;;;;35.89;29.35;97767.50;5006478;28;20069;-53
2022/07/29 07:20:08;;;;;;;25.90;5.65;;;;;;;35.28;30.19;97767.44;5003968;28;20216;-55
2022/07/29 07:22:34;;;;;;;25.20;4.82;;;;;;;35.51;31.21;97766.75;5007480;28;20048;-53
2022/07/29 07:24:59;;;;;;;21.85;4.53;;;;;;;35.92;29.61;97766.19;5004639;28;20018;-53
2022/07/29 07:27:26;;;;;;;23.45;4.95;;;;;;;32.46;34.31;97766.63;5006109;28;20038;-53
2022/07/29 07:29:51;;;;;;;18.92;4.43;;;;;;;33.26;33.85;97759.44;5006884;28;20042;-53
2022/07/29 07:32:17;;;;;;;29.15;4.60;;;;;;;33.67;33.28;97761.72;5005628;28;20045;-53
2022/07/29 07:34:43;;;;;;;21.77;4.68;;;;;;;34.62;31.82;97760.00;5008556;28;20026;-53
2022/07/29 07:37:09;;;;;;;25.00;5.07;;;;;;;35.52;30.44;97754.84;5007567;28;20034;-54
2022/07/29 07:39:35;;;;;;;19.70;4.57;;;;;;;35.17;31.20;97753.81;5009337;28;20037;-52
2022/07/29 07:42:01;;;;;;;21.02;4.57;;;;;;;35.27;31.24;97754.13;5006923;28;20037;-55
2022/07/29 07:44:26;;;;;;;24.90;4.95;;;;;;;35.39;31.09;97768.56;5007317;28;20025;-54
2022/07/29 07:46:52;;;;;;;20.23;4.32;;;;;;;35.02;30.45;97757.72;5005116;28;20033;-53
2022/07/29 07:49:17;;;;;;;26.30;4.85;;;;;;;34.56;31.18;97759.84;5007926;28;20042;-53
2022/07/29 07:51:43;;;;;;;26.75;5.45;;;;;;;33.55;32.73;97763.44;5005505;28;20559;-53
2022/07/29 07:54:08;;;;;;;24.98;5.45;;;;;;;33.53;32.85;97760.13;5008588;28;20053;-53
2022/07/29 07:56:34;;;;;;;26.15;4.95;;;;;;;35.33;30.53;97754.03;5006165;28;20034;-53
2022/07/29 07:58:59;;;;;;;28.02;5.38;;;;;;;37.19;28.79;97754.03;5006523;28;20033;-53
2022/07/29 08:01:24;;;;;;;22.85;4.80;;;;;;;34.83;31.63;97753.34;5006637;28;20713;-54
2022/07/29 08:03:50;;;;;;;17.20;4.15;;;;;;;34.88;31.55;97757.03;5006691;28;20087;-54
2022/07/29 08:06:15;;;;;;;29.80;5.57;;;;;;;33.01;33.79;97752.00;5006708;28;20183;-53
2022/07/29 08:08:41;;;;;;;24.23;4.88;;;;;;;33.25;34.07;97746.94;5006603;28;20361;-52
2022/07/29 08:11:07;;;;;;;22.33;4.60;;;;;;;31.70;36.05;97743.50;5005237;28;20043;-53
2022/07/29 08:13:32;;;;;;;28.23;5.20;;;;;;;32.22;35.75;97741.09;5007681;28;20033;-54
2022/07/29 08:16:10;;;;;;;29.17;5.35;;;;;;;31.95;35.74;97742.94;5007917;28;20053;-53
2022/07/29 08:18:36;;;;;;;27.52;4.90;;;;;;;30.23;38.53;97749.09;5007244;28;20399;-55
2022/07/29 08:21:01;;;;;;;22.88;4.68;;;;;;;30.44;39.17;97749.09;5005414;28;20103;-55
2022/07/29 08:23:34;;;;;;;23.35;4.68;;;;;;;33.93;34.53;97741.81;5007114;28;20040;-55
2022/07/29 08:26:00;;;;;;;30.30;5.38;;;;;;;33.07;36.09;97747.59;5004828;28;20036;-56
2022/07/29 08:28:25;;;;;;;21.45;4.78;;;;;;;36.17;31.50;97742.41;5008068;28;20120;-53
2022/07/29 08:30:51;;;;;;;25.77;5.18;;;;;;;32.56;36.09;97741.06;5006764;28;20072;-55
2022/07/29 08:33:16;;;;;;;26.80;5.03;;;;;;;31.99;36.67;97744.16;5006809;28;20141;-53
2022/07/29 08:35:42;;;;;;;22.73;4.82;;;;;;;31.08;38.24;97742.66;5006628;28;20706;-52
2022/07/29 08:38:07;;;;;;;23.55;4.63;;;;;;;31.90;37.88;97745.41;5007228;28;20026;-54
2022/07/29 08:40:32;;;;;;;27.90;5.30;;;;;;;33.21;36.17;97747.41;5006604;28;20044;-54
2022/07/29 08:43:03;;;;;;;30.40;5.35;;;;;;;34.84;33.75;97746.88;5007623;28;20422;-53
2022/07/29 08:45:29;;;;;;;22.67;4.78;;;;;;;35.69;32.65;97746.91;5005990;28;20239;-53
2022/07/29 08:47:55;;;;;;;27.25;5.05;;;;;;;38.63;28.80;97743.78;5004558;28;20029;-55
2022/07/29 08:50:20;;;;;;;29.13;5.75;;;;;;;36.07;31.62;97734.03;5004257;28;20029;-53
2022/07/29 08:52:47;;;;;;;18.55;4.22;;;;;;;36.59;30.87;97739.63;5006834;28;20037;-53
2022/07/29 08:55:15;;;;;;;20.67;4.80;;;;;;;37.04;30.95;97736.28;5007514;28;20173;-55
2022/07/29 08:57:40;;;;;;;22.17;4.82;;;;;;;39.21;28.38;97738.88;5004884;28;20555;-55
2022/07/29 09:00:08;;;;;;;24.65;5.13;;;;;;;39.57;27.72;97733.81;5006477;28;20026;-52
2022/07/29 09:02:38;;;;;;;20.30;4.45;;;;;;;37.48;30.00;97729.53;5006385;28;20046;-52
2022/07/29 09:05:04;;;;;;;20.50;4.43;;;;;;;38.68;28.32;97732.16;5006950;28;20026;-51
2022/07/29 09:07:30;;;;;;;24.17;5.25;;;;;;;38.12;28.99;97732.94;5007498;28;20396;-52
2022/07/29 09:09:56;;;;;;;23.98;5.68;;;;;;;35.58;32.84;97722.44;5005470;28;20128;-52
2022/07/29 09:12:24;;;;;;;18.33;4.57;;;;;;;39.15;28.93;97726.22;5006239;28;20055;-53
2022/07/29 09:14:50;;;;;;;17.75;4.28;;;;;;;39.73;27.46;97729.34;5007313;28;20515;-53
2022/07/29 09:17:17;;;;;;;20.65;4.63;;;;;;;38.58;28.71;97726.56;5006188;28;20042;-52
2022/07/29 09:19:43;;;;;;;17.90;4.88;;;;;;;36.40;31.33;97727.25;5005088;28;20049;-54
2022/07/29 09:22:09;;;;;;;20.30;4.45;;;;;;;37.96;30.01;97731.00;5005498;28;20097;-54
2022/07/29 09:24:42;;;;;;;21.95;5.25;;;;;;;37.51;29.76;97724.44;5006813;28;20032;-53
2022/07/29 09:27:26;;;;;;;22.77;5.25;;;;;;;35.25;32.53;97721.81;5004674;28;21023;-52
2022/07/29 09:30:07;;;;;;;16.63;4.70;;;;;;;39.22;28.44;97724.13;5008585;28;20650;-52
2022/07/29 09:32:53;;;;;;;14.65;4.43;;;;;;;37.59;31.82;97725.97;5005858;28;20034;-52
2022/07/29 09:35:24;;;;;;;17.98;4.97;;;;;;;37.60;31.17;97727.59;5005072;28;20558;-53
2022/07/29 09:37:50;;;;;;;19.30;4.97;;;;;;;36.16;32.99;97719.06;5010954;28;20033;-54
2022/07/29 09:40:18;;;;;;;23.40;5.32;;;;;;;34.55;34.84;97727.56;5005845;28;20026;-54
2022/07/29 09:42:45;;;;;;;21.23;5.25;;;;;;;38.35;30.31;97717.47;5011086;28;20065;-55
2022/07/29 09:45:11;;;;;;;21.25;5.10;;;;;;;38.34;30.01;97713.94;5010245;28;20034;-53
2022/07/29 09:47:48;;;;;;;22.27;4.97;;;;;;;36.12;32.20;97707.00;5008585;28;20044;-52
2022/07/29 09:50:14;;;;;;;22.25;5.20;;;;;;;36.96;32.06;97712.19;5009813;28;20465;-53
2022/07/29 09:52:53;;;;;;;24.85;5.22;;;;;;;38.33;30.08;97708.75;5010947;28;20398;-53
2022/07/29 09:55:19;;;;;;;24.45;5.35;;;;;;;35.05;33.61;97703.09;5008102;28;20017;-53
2022/07/29 09:57:46;;;;;;;21.85;5.30;;;;;;;34.02;35.65;97711.78;5009677;28;20036;-52
2022/07/29 10:00:13;;;;;;;21.73;5.15;;;;;;;35.35;33.79;97707.72;5008210;28;20036;-52
2022/07/29 10:02:40;;;;;;;17.80;4.65;;;;;;;34.80;34.71;97715.91;5005549;28;20049;-52
2022/07/29 10:05:17;;;;;;;21.80;5.07;;;;;;;33.99;36.19;97711.16;5012909;28;20060;-55
2022/07/29 10:07:44;;;;;;;18.70;4.70;;;;;;;34.55;35.07;97708.59;5014229;28;20442;-54
2022/07/29 10:10:10;;;;;;;30.83;6.22;;;;;;;34.17;35.92;97715.84;5010512;28;20970;-54
2022/07/29 10:12:49;;;;;;;17.55;4.57;;;;;;;35.00;34.76;97710.22;5012058;28;20419;-54
2022/07/29 10:15:15;;;;;;;22.00;5.28;;;;;;;36.28;33.46;97714.50;5012692;28;20100;-53
2022/07/29 10:17:42;;;;;;;18.50;5.15;;;;;;;34.32;35.94;97715.50;5010969;28;20064;-53
2022/07/29 10:20:08;;;;;;;30.83;6.43;;;;;;;34.84;35.73;97707.06;5010809;28;20289;-56
2022/07/29 10:22:34;;;;;;;19.80;4.85;;;;;;;36.66;33.58;97702.31;5012081;28;20076;-52
2022/07/29 10:24:59;;;;;;;18.38;4.68;;;;;;;35.84;34.38;97700.38;5011029;28;20144;-55
2022/07/29 10:27:25;;;;;;;25.63;5.65;;;;;;;33.72;37.32;97705.13;5009391;28;20772;-52
2022/07/29 10:29:50;;;;;;;26.35;5.18;;;;;;;33.80;37.61;97707.56;5010871;28;20037;-54
2022/07/29 10:32:30;;;;;;;21.45;5.35;;;;;;;32.43;40.01;97704.94;5010286;28;20064;-52
2022/07/29 10:35:19;;;;;;;17.70;4.68;;;;;;;34.95;36.22;97697.38;5012248;28;20029;-53
2022/07/29 10:38:10;;;;;;;16.88;4.57;;;;;;;34.54;37.28;97696.13;5011342;28;20408;-54
2022/07/29 10:43:44;;;;;;;17.95;4.95;;;;;;;35.32;36.08;97690.03;5011799;28;20071;-53
2022/07/29 10:46:11;;;;;;;17.40;4.93;;;;;;;34.82;36.58;97681.28;5012142;28;20069;-57
2022/07/29 10:49:06;;;;;;;21.42;5.13;;;;;;;33.63;38.16;97682.06;5011066;28;20021;-54
2022/07/29 10:51:50;;;;;;;24.05;5.13;;;;;;;36.35;34.27;97675.53;5009914;28;20045;-55
2022/07/29 10:54:15;;;;;;;18.33;5.18;;;;;;;33.99;36.90;97678.69;5011368;28;20026;-56
2022/07/29 10:56:41;;;;;;;20.67;5.22;;;;;;;34.64;36.03;97680.19;5011922;28;20100;-53
2022/07/29 10:59:23;;;;;;;20.17;4.97;;;;;;;33.68;38.26;97676.88;5011096;28;20021;-55
2022/07/29 11:01:50;;;;;;;25.27;5.38;;;;;;;33.73;38.04;97668.06;5009599;28;20907;-54
2022/07/29 11:04:36;;;;;;;16.95;5.10;;;;;;;32.96;39.31;97668.91;5010833;28;20112;-55
2022/07/29 11:07:04;;;;;;;18.40;4.70;;;;;;;32.82;39.94;97662.72;5012076;28;20531;-55
2022/07/29 11:09:30;;;;;;;17.83;4.93;;;;;;;32.37;42.50;97659.06;5012563;28;20038;-54
2022/07/29 11:11:56;;;;;;;22.35;5.63;;;;;;;32.37;41.45;97654.53;5010575;28;20087;-53
2022/07/29 11:14:58;;;;;;;18.58;5.22;;;;;;;32.41;40.59;97650.34;5012221;28;20147;-53
2022/07/29 11:17:24;;;;;;;23.08;5.55;;;;;;;32.04;41.55;97660.78;5013390;28;20044;-53
2022/07/29 11:19:49;;;;;;;22.80;5.72;;;;;;;31.16;43.41;97655.47;5010910;28;20030;-53
2022/07/29 11:22:35;;;;;;;26.70;5.97;;;;;;;31.40;43.37;97650.53;5011257;28;20033;-54
2022/07/29 11:25:15;;;;;;;25.20;6.10;;;;;;;31.20;43.92;97659.41;5010992;28;20033;-55
2022/07/29 11:27:40;;;;;;;26.00;6.07;;;;;;;31.09;43.63;97662.69;5009589;28;20045;-54
2022/07/29 11:30:07;;;;;;;37.38;7.43;;;;;;;31.08;43.91;97661.00;5009671;28;20566;-54
2022/07/29 11:32:40;;;;;;;27.65;5.75;;;;;;;30.95;48.09;97656.41;5008623;28;20135;-53
2022/07/29 11:35:21;;;;;;;43.47;6.93;;;;;;;29.07;71.28;97658.59;5011080;28;20041;-54